createdAt,value
2022-09-28T00:00:25.028Z,139.48
2022-09-28T00:03:29.630Z,141.00
2022-09-28T00:06:34.011Z,117.13
2022-09-28T00:09:38.417Z,149.68
2022-09-28T00:12:42.585Z,149.50
2022-09-28T00:15:46.859Z,164.00
2022-09-28T00:18:52.348Z,153.63
2022-09-28T00:21:57.034Z,140.88
2022-09-28T00:25:01.396Z,136.32
2022-09-28T00:28:07.371Z,158.27
2022-09-28T00:31:11.768Z,162.57
2022-09-28T00:34:16.882Z,192.15
2022-09-28T00:37:21.348Z,180.07
2022-09-28T00:40:25.680Z,184.00
2022-09-28T00:43:29.973Z,190.68
2022-09-28T00:46:36.229Z,184.18
2022-09-28T00:49:57.348Z,254.73
2022-09-28T00:53:16.036Z,228.02
2022-09-28T00:56:24.939Z,214.10
2022-09-28T00:59:31.367Z,180.52
2022-09-28T01:02:36.021Z,225.38
2022-09-28T01:05:41.440Z,191.38
2022-09-28T01:08:48.237Z,207.98
2022-09-28T01:11:52.703Z,185.82
2022-09-28T01:14:58.351Z,206.77
2022-09-28T01:18:17.422Z,164.88
2022-09-28T01:21:25.894Z,157.98
2022-09-28T01:24:46.459Z,146.77
2022-09-28T01:28:02.205Z,160.27
2022-09-28T01:31:15.912Z,224.93
2022-09-28T01:35:17.299Z,162.18
2022-09-28T01:38:34.490Z,162.45
2022-09-28T01:41:41.361Z,186.07
2022-09-28T01:44:49.974Z,196.15
2022-09-28T01:48:00.871Z,224.27
2022-09-28T01:51:13.883Z,160.60
2022-09-28T01:54:28.914Z,196.77
2022-09-28T01:58:07.558Z,202.35
2022-09-28T02:01:55.359Z,228.50
2022-09-28T02:05:35.373Z,212.40
2022-09-28T02:08:58.183Z,214.90
2022-09-28T02:12:12.306Z,194.93
2022-09-28T02:15:28.256Z,191.95
2022-09-28T02:18:33.624Z,172.10
2022-09-28T02:21:54.913Z,196.30
2022-09-28T02:25:47.110Z,186.02
2022-09-28T02:28:51.416Z,193.30
2022-09-28T02:31:55.958Z,166.70
2022-09-28T02:35:00.736Z,185.63
2022-09-28T02:38:05.218Z,158.30
2022-09-28T02:41:54.316Z,180.05
2022-09-28T02:45:30.173Z,171.85
2022-09-28T02:49:20.347Z,171.60
2022-09-28T02:52:50.741Z,174.95
2022-09-28T02:56:08.671Z,159.25
2022-09-28T03:00:03.254Z,155.02
2022-09-28T03:03:53.830Z,215.98
2022-09-28T03:07:23.812Z,155.88
2022-09-28T03:10:46.713Z,154.75
2022-09-28T03:13:52.935Z,186.68
2022-09-28T03:16:57.285Z,151.13
2022-09-28T03:20:02.594Z,161.32
2022-09-28T03:23:23.954Z,172.30
2022-09-28T03:26:29.184Z,175.63
2022-09-28T03:32:40.083Z,188.32
2022-09-28T03:35:50.602Z,161.70
2022-09-28T03:38:56.150Z,181.95
2022-09-28T03:42:01.359Z,161.63
2022-09-28T03:45:06.670Z,180.23
2022-09-28T03:48:11.197Z,165.80
2022-09-28T03:51:15.530Z,155.70
2022-09-28T03:54:20.058Z,171.68
2022-09-28T03:57:24.292Z,146.27
2022-09-28T04:00:28.858Z,152.57
2022-09-28T04:03:33.562Z,144.05
2022-09-28T04:06:39.480Z,151.13
2022-09-28T04:09:43.981Z,154.00
2022-09-28T04:12:49.785Z,153.82
2022-09-28T04:15:59.608Z,156.43
2022-09-28T04:19:04.556Z,175.60
2022-09-28T04:22:09.311Z,165.40
2022-09-28T04:25:13.668Z,160.25
2022-09-28T04:31:50.707Z,156.10
2022-09-28T04:34:54.833Z,169.88
2022-09-28T04:37:59.172Z,157.30
2022-09-28T04:41:03.939Z,189.02
2022-09-28T04:44:09.754Z,191.07
2022-09-28T04:47:14.298Z,174.35
2022-09-28T04:50:18.744Z,168.05
2022-09-28T04:53:25.583Z,163.20
2022-09-28T04:56:30.024Z,152.00
2022-09-28T04:59:34.273Z,174.15
2022-09-28T05:02:39.290Z,160.27
2022-09-28T05:05:47.694Z,161.57
2022-09-28T05:08:52.623Z,146.82
2022-09-28T05:11:57.004Z,176.02
2022-09-28T05:15:01.168Z,146.98
2022-09-28T05:21:30.616Z,141.40
2022-09-28T05:24:35.371Z,162.95
2022-09-28T05:27:40.026Z,165.65
2022-09-28T05:30:46.611Z,149.80
2022-09-28T05:33:51.626Z,155.93
2022-09-28T05:36:56.304Z,162.48
2022-09-28T05:40:00.934Z,159.05
2022-09-28T05:43:05.628Z,159.95
2022-09-28T05:46:09.979Z,173.02
2022-09-28T05:49:14.795Z,158.10
2022-09-28T05:52:20.029Z,155.65
2022-09-28T05:55:24.620Z,151.98
2022-09-28T05:58:29.087Z,149.73
2022-09-28T06:01:33.598Z,149.77
2022-09-28T06:04:38.164Z,172.60
2022-09-28T06:07:42.978Z,166.85
2022-09-28T06:10:47.553Z,171.40
2022-09-28T06:13:56.890Z,168.00
2022-09-28T06:17:02.323Z,161.63
2022-09-28T06:20:07.664Z,175.55
2022-09-28T06:23:17.977Z,167.05
2022-09-28T06:26:22.909Z,165.57
2022-09-28T06:29:27.566Z,163.45
2022-09-28T06:32:32.251Z,155.35
2022-09-28T06:35:36.621Z,170.90
2022-09-28T06:38:41.408Z,157.10
2022-09-28T06:41:45.755Z,160.75
2022-09-28T06:44:49.977Z,163.15
2022-09-28T06:47:59.874Z,162.30
2022-09-28T06:51:04.691Z,153.55
2022-09-28T06:54:09.896Z,157.65
2022-09-28T06:57:14.472Z,162.32
2022-09-28T07:00:19.210Z,153.75
2022-09-28T07:03:25.037Z,152.45
2022-09-28T07:06:31.548Z,163.32
2022-09-28T07:09:41.446Z,155.60
2022-09-28T07:12:48.512Z,151.52
2022-09-28T07:15:57.638Z,152.98
2022-09-28T07:19:02.057Z,150.27
2022-09-28T07:22:06.511Z,159.93
2022-09-28T07:25:11.070Z,157.25
2022-09-28T07:28:17.355Z,159.88
2022-09-28T07:31:25.361Z,165.75
2022-09-28T07:34:29.859Z,160.43
2022-09-28T07:37:36.423Z,150.77
2022-09-28T07:40:59.195Z,140.55
2022-09-28T07:44:06.801Z,146.85
2022-09-28T07:47:11.342Z,153.35
2022-09-28T07:50:15.969Z,139.98
2022-09-28T07:53:23.134Z,130.82
2022-09-28T07:56:27.975Z,121.93
2022-09-28T07:59:32.749Z,126.32
2022-09-28T08:02:38.131Z,131.15
2022-09-28T08:05:43.278Z,124.88
2022-09-28T08:08:48.092Z,118.57
2022-09-28T08:12:02.520Z,119.20
2022-09-28T08:15:11.441Z,109.25
2022-09-28T08:18:16.186Z,95.35
2022-09-28T08:21:41.834Z,99.20
2022-09-28T08:24:49.461Z,102.30
2022-09-28T08:27:57.484Z,98.47
2022-09-28T08:31:02.889Z,88.13
2022-09-28T08:34:08.224Z,94.68
2022-09-28T08:37:13.119Z,93.25
2022-09-28T08:40:24.892Z,88.43
2022-09-28T08:44:10.773Z,86.53
2022-09-28T08:47:53.204Z,94.80
2022-09-28T08:51:07.395Z,76.30
2022-09-28T08:54:37.398Z,78.55
2022-09-28T08:57:59.324Z,75.40
2022-09-28T09:01:16.795Z,68.60
2022-09-28T09:04:31.046Z,64.05
2022-09-28T09:07:47.565Z,69.38
2022-09-28T09:11:50.095Z,67.65
2022-09-28T09:15:29.112Z,66.88
2022-09-28T09:18:41.752Z,71.90
2022-09-28T09:22:09.978Z,64.95
2022-09-28T09:25:55.063Z,68.10
2022-09-28T09:29:17.967Z,63.08
2022-09-28T09:33:05.381Z,61.65
2022-09-28T09:36:42.478Z,63.47
2022-09-28T09:40:48.345Z,55.42
2022-09-28T09:44:55.071Z,67.53
2022-09-28T09:48:43.707Z,52.60
2022-09-28T09:52:09.351Z,48.00
2022-09-28T09:56:26.790Z,43.58
2022-09-28T09:59:42.052Z,37.38
2022-09-28T10:02:48.715Z,32.92
2022-09-28T10:06:06.769Z,34.30
2022-09-28T10:09:24.976Z,35.45
2022-09-28T10:12:31.144Z,28.40
2022-09-28T10:15:36.521Z,30.33
2022-09-28T10:18:41.274Z,21.88
2022-09-28T10:21:52.892Z,23.20
2022-09-28T10:24:59.313Z,27.42
2022-09-28T10:28:07.703Z,22.85
2022-09-28T10:31:46.081Z,24.42
2022-09-28T10:34:52.815Z,23.02
2022-09-28T10:38:07.415Z,27.73
2022-09-28T10:41:13.554Z,16.77
2022-09-28T10:44:20.603Z,12.90
2022-09-28T10:47:30.534Z,13.55
2022-09-28T10:50:35.104Z,9.57
2022-09-28T10:53:39.955Z,8.70
2022-09-28T10:56:46.513Z,12.98
2022-09-28T10:59:51.251Z,7.28
2022-09-28T11:02:55.882Z,9.40
2022-09-28T11:06:07.734Z,8.15
2022-09-28T11:09:32.067Z,9.20
2022-09-28T11:12:43.964Z,8.05
2022-09-28T11:15:48.458Z,6.57
2022-09-28T11:18:53.356Z,6.72
2022-09-28T11:21:57.659Z,10.60
2022-09-28T11:25:18.461Z,12.98
2022-09-28T11:28:32.689Z,8.63
2022-09-28T11:31:37.690Z,7.25
2022-09-28T11:34:59.220Z,8.68
2022-09-28T11:38:31.995Z,10.13
2022-09-28T11:41:52.385Z,8.45
2022-09-28T11:45:51.087Z,8.30
2022-09-28T11:49:07.350Z,7.25
2022-09-28T11:52:24.112Z,7.10
2022-09-28T11:55:54.377Z,6.72
2022-09-28T11:59:37.108Z,6.50
2022-09-28T12:03:08.088Z,5.55
2022-09-28T12:06:19.567Z,2.58
2022-09-28T12:09:43.481Z,4.28
2022-09-28T12:12:54.267Z,3.55
2022-09-28T12:17:00.883Z,5.57
2022-09-28T12:20:14.616Z,6.50
2022-09-28T12:23:27.393Z,4.18
2022-09-28T12:26:42.161Z,4.88
2022-09-28T12:29:53.412Z,6.38
2022-09-28T12:33:09.173Z,6.78
2022-09-28T12:36:35.833Z,6.15
2022-09-28T12:40:17.337Z,8.43
2022-09-28T12:44:03.971Z,6.57
2022-09-28T12:48:01.366Z,6.43
2022-09-28T12:51:18.733Z,7.30
2022-09-28T12:54:34.299Z,6.43
2022-09-28T12:58:26.243Z,4.25
2022-09-28T13:01:48.492Z,5.88
2022-09-28T13:05:16.824Z,6.03
2022-09-28T13:08:58.272Z,4.97
2022-09-28T13:12:34.216Z,5.28
2022-09-28T13:16:08.037Z,3.75
2022-09-28T13:19:40.583Z,6.40
2022-09-28T13:23:18.702Z,3.40
2022-09-28T13:26:44.008Z,10.18
2022-09-28T13:29:54.308Z,3.03
2022-09-28T13:33:05.840Z,4.15
2022-09-28T13:36:47.838Z,6.53
2022-09-28T13:39:59.664Z,4.13
2022-09-28T13:43:25.331Z,5.68
2022-09-28T13:47:12.986Z,5.13
2022-09-28T13:51:03.690Z,3.42
2022-09-28T13:54:24.357Z,5.20
2022-09-28T13:57:52.118Z,3.92
2022-09-28T14:01:10.470Z,3.20
2022-09-28T14:04:25.495Z,4.85
2022-09-28T14:07:35.843Z,7.43
2022-09-28T14:10:55.493Z,3.20
2022-09-28T14:14:08.733Z,5.75
2022-09-28T14:17:19.299Z,5.30
2022-09-28T14:20:27.389Z,4.70
2022-09-28T14:23:44.900Z,4.45
2022-09-28T14:27:13.394Z,2.40
2022-09-28T14:30:29.537Z,6.32
2022-09-28T14:33:35.160Z,5.63
2022-09-28T14:37:07.143Z,4.15
2022-09-28T14:41:01.043Z,3.90
2022-09-28T14:44:19.347Z,4.75
2022-09-28T14:48:03.258Z,2.38
2022-09-28T14:51:33.049Z,6.78
2022-09-28T14:54:52.872Z,4.10
2022-09-28T14:58:01.979Z,6.32
2022-09-28T15:01:20.763Z,3.38
2022-09-28T15:04:30.112Z,4.60
2022-09-28T15:07:57.250Z,5.13
2022-09-28T15:11:12.921Z,7.43
2022-09-28T15:14:21.388Z,7.65
2022-09-28T15:17:51.043Z,5.43
2022-09-28T15:20:56.278Z,4.25
2022-09-28T15:24:01.906Z,6.55
2022-09-28T15:27:19.103Z,14.95
2022-09-28T15:30:32.203Z,9.88
2022-09-28T15:33:59.710Z,9.82
2022-09-28T15:37:18.874Z,12.75
2022-09-28T15:40:41.601Z,11.38
2022-09-28T15:44:24.587Z,6.60
2022-09-28T15:47:40.802Z,7.20
2022-09-28T15:51:19.247Z,7.28
2022-09-28T15:54:44.187Z,6.10
2022-09-28T16:01:36.696Z,7.78
2022-09-28T16:08:02.095Z,9.43
2022-09-28T16:11:31.762Z,6.80
2022-09-28T16:14:36.516Z,6.63
2022-09-28T16:17:44.087Z,5.65
2022-09-28T16:20:56.312Z,4.50
2022-09-28T16:24:08.796Z,6.90
2022-09-28T16:27:42.256Z,10.95
2022-09-28T16:31:10.110Z,8.02
2022-09-28T16:34:33.520Z,5.80
2022-09-28T16:37:42.761Z,9.85
2022-09-28T16:40:58.095Z,6.80
2022-09-28T16:44:06.811Z,9.32
2022-09-28T16:47:11.664Z,7.72
2022-09-28T16:50:43.198Z,7.43
2022-09-28T16:54:06.960Z,9.82
2022-09-28T16:57:14.909Z,9.52
2022-09-28T17:00:25.776Z,11.82
2022-09-28T17:03:36.348Z,9.57
2022-09-28T17:07:03.508Z,8.75
2022-09-28T17:11:02.618Z,7.18
2022-09-28T17:14:08.880Z,7.53
2022-09-28T17:17:17.211Z,7.63
2022-09-28T17:20:29.613Z,7.05
2022-09-28T17:23:39.847Z,11.60
2022-09-28T17:26:49.300Z,5.55
2022-09-28T17:29:59.184Z,4.75
2022-09-28T17:33:09.032Z,6.70
2022-09-28T17:36:19.707Z,7.53
2022-09-28T17:39:33.687Z,6.55
2022-09-28T17:43:00.526Z,9.40
2022-09-28T17:46:26.553Z,9.18
2022-09-28T17:49:40.150Z,11.27
2022-09-28T17:52:45.985Z,14.70
2022-09-28T17:55:51.691Z,15.20
2022-09-28T17:59:01.509Z,14.30
2022-09-28T18:02:27.635Z,12.07
2022-09-28T18:06:11.315Z,11.57
2022-09-28T18:09:26.387Z,12.65
2022-09-28T18:12:54.101Z,13.50
2022-09-28T18:16:36.608Z,14.90
2022-09-28T18:19:56.056Z,15.02
2022-09-28T18:23:33.876Z,13.07
2022-09-28T18:26:48.887Z,20.63
2022-09-28T18:30:00.265Z,20.67
2022-09-28T18:33:11.045Z,23.73
2022-09-28T18:36:22.917Z,21.85
2022-09-28T18:39:34.605Z,22.98
2022-09-28T18:51:09.516Z,20.00
2022-09-28T18:54:31.759Z,29.17
2022-09-28T19:02:27.546Z,22.20
2022-09-28T19:05:40.059Z,20.02
2022-09-28T19:08:57.070Z,21.45
2022-09-28T19:12:33.428Z,19.80
2022-09-28T19:15:46.214Z,21.05
2022-09-28T19:18:56.502Z,22.08
2022-09-28T19:22:16.557Z,21.05
2022-09-28T19:25:30.178Z,20.38
2022-09-28T19:29:32.929Z,24.00
2022-09-28T19:32:53.249Z,22.88
2022-09-28T19:36:14.366Z,31.05
2022-09-28T19:39:39.141Z,27.58
2022-09-28T19:42:56.212Z,26.83
2022-09-28T19:46:33.603Z,63.50
2022-09-28T19:49:51.787Z,29.75
2022-09-28T19:53:27.224Z,42.03
2022-09-28T19:56:45.939Z,35.38
2022-09-28T20:00:29.855Z,39.58
2022-09-28T20:04:36.622Z,52.78
2022-09-28T20:08:13.380Z,31.80
2022-09-28T20:12:00.352Z,32.90
2022-09-28T20:15:40.958Z,33.58
2022-09-28T20:19:28.581Z,28.33
2022-09-28T20:23:30.422Z,92.82
2022-09-28T20:32:21.545Z,43.20
2022-09-28T20:52:06.940Z,28.75
2022-09-28T20:57:00.697Z,31.33
2022-09-28T21:00:30.867Z,31.95
